createdAt,value
2018-10-07T00:01:33.111Z,98.50
2018-10-07T00:04:01.782Z,98.70
2018-10-07T00:06:30.313Z,98.80
2018-10-07T00:08:58.930Z,98.90
2018-10-07T00:11:27.366Z,98.90
2018-10-07T00:13:55.892Z,99.10
2018-10-07T00:16:24.331Z,99.00
2018-10-07T00:18:52.893Z,99.00
2018-10-07T00:21:21.366Z,98.90
2018-10-07T00:23:56.754Z,98.90
2018-10-07T00:26:25.324Z,98.80
2018-10-07T00:28:53.857Z,98.80
2018-10-07T00:31:22.297Z,98.80
2018-10-07T00:33:50.757Z,98.70
2018-10-07T00:36:19.202Z,98.60
2018-10-07T00:38:47.959Z,98.60
2018-10-07T00:41:16.434Z,98.60
2018-10-07T00:43:45.034Z,98.60
2018-10-07T00:46:13.808Z,98.60
2018-10-07T00:48:42.294Z,98.70
2018-10-07T00:51:10.844Z,98.90
2018-10-07T00:53:39.321Z,99.00
2018-10-07T00:56:08.313Z,99.40
2018-10-07T00:58:36.974Z,99.60
2018-10-07T01:01:05.428Z,99.90
2018-10-07T01:03:33.865Z,99.90
2018-10-07T01:06:02.391Z,99.90
2018-10-07T01:08:30.956Z,99.90
2018-10-07T01:10:59.463Z,99.90
2018-10-07T01:13:28.060Z,99.90
2018-10-07T01:15:56.764Z,99.90
2018-10-07T01:18:25.175Z,99.90
2018-10-07T01:20:53.822Z,99.90
2018-10-07T01:23:22.228Z,99.90
2018-10-07T01:25:50.821Z,99.90
2018-10-07T01:28:19.422Z,99.90
2018-10-07T01:30:47.980Z,99.90
2018-10-07T01:33:16.761Z,99.90
2018-10-07T01:35:45.316Z,99.90
2018-10-07T01:38:14.345Z,99.90
2018-10-07T01:40:43.256Z,99.90
2018-10-07T01:43:12.088Z,99.90
2018-10-07T01:45:40.567Z,99.90
2018-10-07T01:48:09.025Z,99.90
2018-10-07T01:50:37.537Z,99.90
2018-10-07T01:53:06.092Z,99.90
2018-10-07T01:55:34.814Z,99.90
2018-10-07T01:58:03.334Z,99.90
2018-10-07T02:00:32.045Z,99.90
2018-10-07T02:03:00.504Z,99.90
2018-10-07T02:05:29.185Z,99.90
2018-10-07T02:07:57.613Z,99.90
2018-10-07T02:10:26.115Z,99.90
2018-10-07T02:12:54.593Z,99.90
2018-10-07T02:15:23.125Z,99.90
2018-10-07T02:17:51.572Z,99.90
2018-10-07T02:20:20.209Z,99.90
2018-10-07T02:22:48.649Z,99.90
2018-10-07T02:25:17.316Z,99.90
2018-10-07T02:27:45.796Z,99.90
2018-10-07T02:30:14.706Z,99.90
2018-10-07T02:32:43.691Z,99.90
2018-10-07T02:35:12.432Z,99.90
2018-10-07T02:37:40.910Z,99.90
2018-10-07T02:40:09.464Z,99.90
2018-10-07T02:42:37.980Z,99.90
2018-10-07T02:45:06.574Z,99.90
2018-10-07T02:47:35.081Z,99.90
2018-10-07T02:50:13.818Z,99.90
2018-10-07T02:52:47.695Z,99.90
2018-10-07T02:55:18.647Z,99.90
2018-10-07T02:57:47.157Z,99.90
2018-10-07T03:00:15.678Z,99.90
2018-10-07T03:02:44.165Z,99.90
2018-10-07T03:05:13.108Z,99.90
2018-10-07T03:07:41.639Z,99.90
2018-10-07T03:10:10.636Z,99.90
2018-10-07T03:12:39.085Z,99.90
2018-10-07T03:15:07.609Z,99.90
2018-10-07T03:17:36.109Z,99.90
2018-10-07T03:20:04.676Z,99.90
2018-10-07T03:22:33.135Z,99.90
2018-10-07T03:25:01.801Z,99.90
2018-10-07T03:27:30.340Z,99.90
2018-10-07T03:29:58.829Z,99.90
2018-10-07T03:32:27.308Z,99.90
2018-10-07T03:34:55.890Z,99.90
2018-10-07T03:37:24.499Z,99.90
2018-10-07T03:39:53.434Z,99.90
2018-10-07T03:42:21.864Z,99.90
2018-10-07T03:44:50.589Z,99.90
2018-10-07T03:47:19.017Z,99.90
2018-10-07T03:49:47.508Z,99.90
2018-10-07T03:52:15.937Z,99.90
2018-10-07T03:54:44.397Z,99.90
2018-10-07T03:57:12.895Z,99.90
2018-10-07T03:59:41.336Z,99.90
2018-10-07T04:02:09.916Z,99.90
2018-10-07T04:04:38.377Z,99.90
2018-10-07T04:07:07.206Z,99.90
2018-10-07T04:09:35.747Z,99.90
2018-10-07T04:12:04.420Z,99.90
2018-10-07T04:14:33.150Z,99.90
2018-10-07T04:17:01.747Z,99.90
2018-10-07T04:19:30.297Z,99.90
2018-10-07T04:21:59.260Z,99.90
2018-10-07T04:24:29.724Z,99.90
2018-10-07T04:26:58.258Z,99.90
2018-10-07T04:29:27.116Z,99.90
2018-10-07T04:31:55.805Z,99.90
2018-10-07T04:34:24.485Z,99.90
2018-10-07T04:36:52.890Z,99.90
2018-10-07T04:39:21.469Z,99.90
2018-10-07T04:41:49.918Z,99.90
2018-10-07T04:44:18.476Z,99.90
2018-10-07T04:46:46.906Z,99.90
2018-10-07T04:49:15.552Z,99.90
2018-10-07T04:51:43.964Z,99.90
2018-10-07T04:54:12.419Z,99.90
2018-10-07T04:56:40.880Z,99.90
2018-10-07T04:59:09.418Z,99.90
2018-10-07T05:01:37.882Z,99.90
2018-10-07T05:04:06.491Z,99.90
2018-10-07T05:06:36.294Z,99.90
2018-10-07T05:09:07.892Z,99.90
2018-10-07T05:11:36.516Z,99.90
2018-10-07T05:14:06.158Z,99.90
2018-10-07T05:16:45.702Z,99.90
2018-10-07T05:19:14.226Z,99.90
2018-10-07T05:21:42.875Z,99.90
2018-10-07T05:24:11.416Z,99.90
2018-10-07T05:26:40.251Z,99.90
2018-10-07T05:29:08.768Z,99.90
2018-10-07T05:31:37.347Z,99.90
2018-10-07T05:34:06.167Z,99.90
2018-10-07T05:36:34.665Z,99.90
2018-10-07T05:39:04.437Z,99.90
2018-10-07T05:41:33.015Z,99.90
2018-10-07T05:44:01.467Z,99.90
2018-10-07T05:46:30.016Z,99.90
2018-10-07T05:48:58.469Z,99.90
2018-10-07T05:51:27.174Z,99.90
2018-10-07T05:53:55.895Z,99.90
2018-10-07T05:56:24.507Z,99.90
2018-10-07T05:58:54.879Z,99.90
2018-10-07T06:01:30.564Z,99.90
2018-10-07T06:04:08.559Z,99.90
2018-10-07T06:06:37.354Z,99.90
2018-10-07T06:09:08.676Z,99.90
2018-10-07T06:11:37.364Z,99.90
2018-10-07T06:14:05.910Z,99.90
2018-10-07T06:16:34.823Z,99.90
2018-10-07T06:19:03.399Z,99.90
2018-10-07T06:21:31.943Z,99.90
2018-10-07T06:24:01.385Z,99.90
2018-10-07T06:26:30.002Z,99.90
2018-10-07T06:28:58.589Z,99.90
2018-10-07T06:31:27.075Z,99.90
2018-10-07T06:33:55.756Z,99.90
2018-10-07T06:36:24.269Z,99.90
2018-10-07T06:38:52.920Z,99.90
2018-10-07T06:41:21.411Z,99.90
2018-10-07T06:43:50.246Z,99.90
2018-10-07T06:46:20.357Z,99.90
2018-10-07T06:48:48.825Z,99.90
2018-10-07T06:51:17.463Z,99.90
2018-10-07T06:53:46.145Z,99.90
2018-10-07T06:56:14.684Z,99.70
2018-10-07T06:58:43.238Z,98.90
2018-10-07T07:01:11.860Z,98.30
2018-10-07T07:03:40.435Z,98.30
2018-10-07T07:06:08.905Z,97.80
2018-10-07T07:08:37.654Z,97.60
2018-10-07T07:11:06.509Z,97.40
2018-10-07T07:13:35.198Z,96.80
2018-10-07T07:16:03.747Z,96.70
2018-10-07T07:18:32.237Z,96.80
2018-10-07T07:21:00.779Z,97.10
2018-10-07T07:23:29.291Z,97.20
2018-10-07T07:25:57.809Z,97.60
2018-10-07T07:28:26.493Z,97.90
2018-10-07T07:30:54.967Z,98.00
2018-10-07T07:33:23.877Z,98.30
2018-10-07T07:35:52.614Z,98.30
2018-10-07T07:38:21.059Z,98.50
2018-10-07T07:40:49.766Z,98.80
2018-10-07T07:43:18.239Z,98.70
2018-10-07T07:45:46.881Z,98.90
2018-10-07T07:48:15.454Z,98.90
2018-10-07T07:50:44.295Z,98.50
2018-10-07T07:53:12.840Z,98.00
2018-10-07T07:55:41.492Z,97.20
2018-10-07T07:58:09.947Z,96.50
2018-10-07T08:00:38.549Z,96.30
2018-10-07T08:03:07.372Z,95.90
2018-10-07T08:05:36.078Z,95.70
2018-10-07T08:08:04.624Z,95.60
2018-10-07T08:10:33.116Z,94.80
2018-10-07T08:13:01.646Z,94.30
2018-10-07T08:15:30.143Z,94.30
2018-10-07T08:17:58.750Z,93.60
2018-10-07T08:20:27.159Z,93.00
2018-10-07T08:22:55.748Z,93.10
2018-10-07T08:25:24.341Z,92.50
2018-10-07T08:27:53.138Z,92.40
2018-10-07T08:30:21.965Z,92.10
2018-10-07T08:32:51.693Z,91.00
2018-10-07T08:35:20.350Z,90.60
2018-10-07T08:37:48.866Z,90.00
2018-10-07T08:40:17.555Z,88.20
2018-10-07T08:42:46.253Z,88.30
2018-10-07T08:45:14.784Z,86.90
2018-10-07T08:47:43.364Z,86.30
2018-10-07T08:50:12.006Z,82.70
2018-10-07T08:52:40.451Z,82.40
2018-10-07T08:55:08.986Z,82.50
2018-10-07T08:57:37.574Z,82.30
2018-10-07T09:00:06.289Z,81.00
2018-10-07T09:02:34.846Z,79.50
2018-10-07T09:05:03.774Z,80.10
2018-10-07T09:07:32.334Z,75.30
2018-10-07T09:10:00.890Z,74.60
2018-10-07T09:12:29.465Z,73.80
2018-10-07T09:14:58.115Z,73.00
2018-10-07T09:17:26.627Z,71.40
2018-10-07T09:19:55.197Z,71.90
2018-10-07T09:22:23.718Z,70.80
2018-10-07T09:24:52.841Z,70.60
2018-10-07T09:27:21.478Z,69.20
2018-10-07T09:29:50.191Z,69.10
2018-10-07T09:32:18.763Z,67.90
2018-10-07T09:34:47.311Z,67.50
2018-10-07T09:37:16.082Z,68.00
2018-10-07T09:39:44.866Z,67.60
2018-10-07T09:42:13.323Z,67.30
2018-10-07T09:44:41.944Z,69.00
2018-10-07T09:47:10.624Z,68.70
2018-10-07T09:49:39.572Z,68.00
2018-10-07T09:52:08.361Z,63.70
2018-10-07T09:54:37.121Z,61.60
2018-10-07T09:57:06.068Z,58.80
2018-10-07T09:59:34.807Z,55.60
2018-10-07T10:02:03.777Z,51.10
2018-10-07T10:04:33.312Z,49.50
2018-10-07T10:07:01.887Z,47.70
2018-10-07T10:09:30.778Z,45.90
2018-10-07T10:11:59.609Z,44.60
2018-10-07T10:14:28.114Z,43.30
2018-10-07T10:17:00.606Z,39.80
2018-10-07T10:20:12.270Z,39.80
2018-10-07T10:24:53.762Z,39.00
2018-10-07T10:27:33.020Z,40.40
2018-10-07T10:30:08.170Z,40.70
2018-10-07T10:33:18.672Z,41.70
2018-10-07T10:36:01.857Z,42.20
2018-10-07T10:40:07.789Z,43.00
2018-10-07T10:42:45.716Z,42.10
2018-10-07T10:45:19.695Z,44.50
2018-10-07T10:47:48.305Z,47.00
2018-10-07T10:50:29.205Z,48.40
2018-10-07T10:54:09.614Z,49.30
2018-10-07T10:56:41.556Z,50.40
2018-10-07T10:59:13.317Z,50.60
2018-10-07T11:04:00.069Z,50.80
2018-10-07T11:08:45.805Z,50.90
2018-10-07T11:12:23.643Z,50.90
2018-10-07T11:15:03.257Z,50.40
2018-10-07T11:17:39.608Z,50.60
2018-10-07T11:20:17.331Z,50.80
2018-10-07T11:23:27.427Z,50.60
2018-10-07T11:26:13.436Z,50.90
2018-10-07T11:28:55.751Z,50.80
2018-10-07T11:31:31.974Z,51.10
2018-10-07T11:34:12.691Z,51.50
2018-10-07T11:37:16.756Z,50.80
2018-10-07T11:40:04.497Z,50.60
2018-10-07T11:43:41.856Z,51.30
2018-10-07T11:46:22.049Z,50.50
2018-10-07T11:49:12.226Z,50.70
2018-10-07T11:51:51.565Z,51.30
2018-10-07T11:54:32.453Z,50.50
2018-10-07T11:57:01.134Z,51.00
2018-10-07T11:59:29.824Z,51.60
2018-10-07T12:01:58.602Z,51.40
2018-10-07T12:04:27.655Z,50.80
2018-10-07T12:06:56.372Z,50.70
2018-10-07T12:09:25.384Z,51.10
2018-10-07T12:11:54.054Z,51.00
2018-10-07T12:14:22.644Z,50.90
2018-10-07T12:16:51.399Z,51.00
2018-10-07T12:19:20.195Z,51.00
2018-10-07T12:21:48.878Z,50.50
2018-10-07T12:24:17.349Z,50.80
2018-10-07T12:26:47.382Z,51.30
2018-10-07T12:29:15.998Z,51.00
2018-10-07T12:31:44.633Z,51.30
2018-10-07T12:34:13.536Z,51.30
2018-10-07T12:36:42.372Z,51.20
2018-10-07T12:39:10.935Z,51.20
2018-10-07T12:41:39.818Z,50.80
2018-10-07T12:44:08.826Z,51.00
2018-10-07T12:46:37.583Z,50.10
2018-10-07T12:49:06.388Z,50.60
2018-10-07T12:51:35.218Z,50.00
2018-10-07T12:54:03.951Z,50.20
2018-10-07T12:56:32.593Z,49.50
2018-10-07T12:59:01.123Z,49.80
2018-10-07T13:01:29.649Z,49.40
2018-10-07T13:03:58.335Z,48.90
2018-10-07T13:06:26.861Z,49.00
2018-10-07T13:08:55.516Z,47.70
2018-10-07T13:11:24.070Z,46.90
2018-10-07T13:13:52.754Z,47.90
2018-10-07T13:16:21.693Z,47.80
2018-10-07T13:18:50.329Z,47.50
2018-10-07T13:21:19.024Z,46.80
2018-10-07T13:23:47.719Z,46.70
2018-10-07T13:26:16.326Z,46.90
2018-10-07T13:28:45.206Z,47.20
2018-10-07T13:31:13.882Z,47.20
2018-10-07T13:33:42.643Z,46.40
2018-10-07T13:36:11.542Z,46.50
2018-10-07T13:38:40.211Z,46.80
2018-10-07T13:41:08.764Z,46.60
2018-10-07T13:43:37.733Z,45.90
2018-10-07T13:46:06.502Z,46.30
2018-10-07T13:48:35.592Z,46.60
2018-10-07T13:51:04.365Z,46.90
2018-10-07T13:53:32.960Z,46.90
2018-10-07T13:56:01.678Z,46.50
2018-10-07T13:58:30.362Z,46.20
2018-10-07T14:00:58.961Z,46.00
2018-10-07T14:03:27.567Z,46.00
2018-10-07T14:05:56.105Z,46.30
2018-10-07T14:08:24.645Z,46.60
2018-10-07T14:10:53.425Z,46.60
2018-10-07T14:13:21.993Z,45.80
2018-10-07T14:15:50.552Z,46.00
2018-10-07T14:18:19.100Z,45.20
2018-10-07T14:20:47.607Z,45.00
2018-10-07T14:23:16.838Z,45.10
2018-10-07T14:25:45.300Z,45.60
2018-10-07T14:28:14.209Z,46.30
2018-10-07T14:30:42.706Z,46.10
2018-10-07T14:33:11.244Z,45.40
2018-10-07T14:35:40.105Z,45.60
2018-10-07T14:38:08.537Z,44.80
2018-10-07T14:40:37.043Z,44.80
2018-10-07T14:43:05.901Z,45.10
2018-10-07T14:45:34.365Z,45.40
2018-10-07T14:48:02.873Z,45.40
2018-10-07T14:50:31.386Z,45.60
2018-10-07T14:52:59.817Z,45.60
2018-10-07T14:55:28.407Z,45.20
2018-10-07T14:57:56.920Z,45.40
2018-10-07T15:00:25.413Z,45.20
2018-10-07T15:02:53.865Z,45.80
2018-10-07T15:05:22.342Z,46.50
2018-10-07T15:07:50.789Z,46.60
2018-10-07T15:10:19.478Z,46.80
2018-10-07T15:12:48.103Z,47.40
2018-10-07T15:15:16.690Z,47.60
2018-10-07T15:17:45.221Z,47.70
2018-10-07T15:20:13.782Z,47.90
2018-10-07T15:22:42.411Z,48.50
2018-10-07T15:25:10.969Z,48.70
2018-10-07T15:27:39.536Z,48.80
2018-10-07T15:30:08.156Z,48.50
2018-10-07T15:32:36.787Z,48.50
2018-10-07T15:35:05.325Z,48.50
2018-10-07T15:37:33.813Z,48.80
2018-10-07T15:40:02.289Z,48.80
2018-10-07T15:42:30.807Z,48.60
2018-10-07T15:44:59.321Z,48.30
2018-10-07T15:47:27.864Z,48.70
2018-10-07T15:49:56.466Z,48.50
2018-10-07T15:52:25.013Z,48.60
2018-10-07T15:54:53.485Z,48.50
2018-10-07T15:57:22.017Z,48.80
2018-10-07T15:59:50.558Z,48.60
2018-10-07T16:02:19.202Z,48.80
2018-10-07T16:04:47.747Z,49.00
2018-10-07T16:07:16.329Z,48.80
2018-10-07T16:09:44.861Z,49.20
2018-10-07T16:12:13.310Z,49.60
2018-10-07T16:14:41.812Z,49.70
2018-10-07T16:17:10.245Z,50.10
2018-10-07T16:19:38.807Z,50.10
2018-10-07T16:22:07.342Z,49.80
2018-10-07T16:24:35.900Z,50.40
2018-10-07T16:27:04.480Z,50.60
2018-10-07T16:29:33.268Z,50.80
2018-10-07T16:32:01.767Z,50.90
2018-10-07T16:34:30.285Z,51.00
2018-10-07T16:36:58.868Z,51.30
2018-10-07T16:39:27.492Z,51.40
2018-10-07T16:41:55.948Z,52.00
2018-10-07T16:44:24.559Z,52.20
2018-10-07T16:46:53.037Z,52.30
2018-10-07T16:49:21.489Z,52.60
2018-10-07T16:51:50.152Z,52.80
2018-10-07T16:54:18.698Z,53.00
2018-10-07T16:56:47.234Z,53.30
2018-10-07T16:59:15.758Z,53.60
2018-10-07T17:01:44.265Z,53.80
2018-10-07T17:04:12.789Z,54.30
2018-10-07T17:06:41.259Z,54.50
2018-10-07T17:09:10.261Z,54.80
2018-10-07T17:11:38.753Z,55.00
2018-10-07T17:14:07.650Z,55.20
2018-10-07T17:16:36.125Z,55.50
2018-10-07T17:19:04.636Z,55.70
2018-10-07T17:21:33.279Z,55.90
2018-10-07T17:24:01.885Z,56.10
2018-10-07T17:26:30.499Z,56.30
2018-10-07T17:28:59.124Z,56.50
2018-10-07T17:31:27.639Z,56.60
2018-10-07T17:33:56.129Z,56.80
2018-10-07T17:36:24.693Z,57.10
2018-10-07T17:38:53.159Z,57.50
2018-10-07T17:41:21.926Z,57.70
2018-10-07T17:43:50.445Z,58.00
2018-10-07T17:46:18.940Z,57.90
2018-10-07T17:48:47.451Z,58.20
2018-10-07T17:51:15.872Z,58.60
2018-10-07T17:53:44.349Z,58.60
2018-10-07T17:56:13.139Z,58.90
2018-10-07T17:58:41.661Z,59.10
2018-10-07T18:01:10.176Z,59.20
2018-10-07T18:03:38.928Z,59.40
2018-10-07T18:06:07.591Z,59.80
2018-10-07T18:08:36.757Z,59.80
2018-10-07T18:11:05.395Z,60.20
2018-10-07T18:13:34.185Z,60.40
2018-10-07T18:16:02.973Z,61.00
2018-10-07T18:18:31.528Z,61.20
2018-10-07T18:21:00.157Z,61.50
2018-10-07T18:23:28.789Z,61.90
2018-10-07T18:25:57.388Z,62.20
2018-10-07T18:28:25.887Z,62.40
2018-10-07T18:31:01.168Z,62.60
2018-10-07T18:33:29.686Z,63.20
2018-10-07T18:35:58.115Z,63.70
2018-10-07T18:38:26.881Z,64.00
2018-10-07T18:40:55.723Z,64.30
2018-10-07T18:43:24.278Z,64.60
2018-10-07T18:45:52.812Z,65.10
2018-10-07T18:48:21.271Z,65.40
2018-10-07T18:50:49.784Z,65.80
2018-10-07T18:53:18.321Z,66.20
2018-10-07T18:55:46.978Z,66.60
2018-10-07T18:58:15.482Z,67.00
2018-10-07T19:00:44.030Z,67.20
2018-10-07T19:03:13.016Z,67.20
2018-10-07T19:05:41.646Z,67.50
2018-10-07T19:08:10.288Z,67.70
2018-10-07T19:10:38.922Z,67.90
2018-10-07T19:13:07.361Z,68.00
2018-10-07T19:15:36.230Z,68.10
2018-10-07T19:18:04.813Z,68.30
2018-10-07T19:20:33.294Z,68.70
2018-10-07T19:23:01.895Z,69.10
2018-10-07T19:25:30.368Z,69.20
2018-10-07T19:27:58.874Z,69.50
2018-10-07T19:30:27.330Z,69.70
2018-10-07T19:32:55.938Z,70.10
2018-10-07T19:35:24.470Z,70.20
2018-10-07T19:37:53.144Z,70.50
2018-10-07T19:40:21.581Z,70.90
2018-10-07T19:42:50.076Z,71.30
2018-10-07T19:45:18.580Z,71.70
2018-10-07T19:47:47.145Z,71.90
2018-10-07T19:50:15.779Z,72.40
2018-10-07T19:52:44.484Z,72.90
2018-10-07T19:55:13.001Z,73.50
2018-10-07T19:57:41.817Z,73.90
2018-10-07T20:00:10.334Z,74.50
2018-10-07T20:02:38.850Z,74.90
2018-10-07T20:05:07.399Z,75.40
2018-10-07T20:07:35.866Z,75.80
2018-10-07T20:10:04.705Z,76.10
2018-10-07T20:12:33.213Z,76.60
2018-10-07T20:15:01.723Z,77.30
2018-10-07T20:17:30.229Z,77.50
2018-10-07T20:19:59.033Z,77.90
2018-10-07T20:22:27.548Z,78.30
2018-10-07T20:24:55.975Z,78.80
2018-10-07T20:27:24.477Z,79.60
2018-10-07T20:29:52.947Z,80.20
2018-10-07T20:32:21.470Z,80.60
2018-10-07T20:34:49.962Z,81.10
2018-10-07T20:37:18.806Z,81.60
2018-10-07T20:39:47.699Z,82.90
2018-10-07T20:42:16.449Z,84.00
2018-10-07T20:44:44.938Z,85.30
2018-10-07T20:47:13.387Z,85.90
2018-10-07T20:49:42.090Z,86.50
2018-10-07T20:52:10.687Z,87.30
2018-10-07T20:54:39.101Z,87.70
2018-10-07T20:57:07.691Z,88.50
2018-10-07T20:59:36.492Z,88.90
2018-10-07T21:02:05.099Z,89.70
2018-10-07T21:04:33.601Z,90.00
2018-10-07T21:07:02.116Z,90.20
2018-10-07T21:09:30.703Z,90.30
2018-10-07T21:11:59.191Z,90.60
2018-10-07T21:14:27.708Z,90.90
2018-10-07T21:16:56.189Z,91.10
2018-10-07T21:19:24.571Z,91.60
2018-10-07T21:21:53.013Z,91.90
2018-10-07T21:24:21.523Z,92.20
2018-10-07T21:26:49.944Z,92.30
2018-10-07T21:29:18.401Z,92.50
2018-10-07T21:31:46.886Z,92.70
2018-10-07T21:34:15.566Z,93.10
2018-10-07T21:36:44.044Z,93.40
2018-10-07T21:39:12.470Z,93.60
2018-10-07T21:41:41.033Z,93.70
2018-10-07T21:44:09.536Z,94.00
2018-10-07T21:46:38.697Z,94.40
2018-10-07T21:49:07.822Z,94.70
2018-10-07T21:51:36.309Z,95.00
2018-10-07T21:54:04.762Z,95.40
2018-10-07T21:56:33.238Z,95.60
2018-10-07T21:59:01.739Z,95.80
2018-10-07T22:01:30.671Z,95.90
2018-10-07T22:03:59.146Z,96.00
2018-10-07T22:06:27.652Z,96.20
2018-10-07T22:08:56.110Z,96.20
2018-10-07T22:11:24.569Z,96.40
2018-10-07T22:13:53.123Z,96.50
2018-10-07T22:16:21.570Z,96.80
2018-10-07T22:18:50.052Z,96.90
2018-10-07T22:21:18.503Z,97.00
2018-10-07T22:23:46.941Z,97.10
2018-10-07T22:26:15.392Z,97.40
2018-10-07T22:28:43.917Z,97.50
2018-10-07T22:31:12.360Z,97.70
2018-10-07T22:33:40.765Z,97.80
2018-10-07T22:36:09.219Z,98.20
2018-10-07T22:38:37.670Z,98.40
2018-10-07T22:41:06.270Z,98.50
2018-10-07T22:43:34.703Z,98.60
2018-10-07T22:46:03.207Z,98.70
2018-10-07T22:48:31.637Z,99.00
2018-10-07T22:51:00.091Z,98.80
2018-10-07T22:53:28.542Z,99.00
2018-10-07T22:55:56.989Z,99.00
2018-10-07T22:58:25.436Z,99.20
2018-10-07T23:00:53.886Z,99.30
2018-10-07T23:03:22.311Z,99.30
2018-10-07T23:05:50.736Z,99.30
2018-10-07T23:08:19.295Z,99.50
2018-10-07T23:10:47.752Z,99.70
2018-10-07T23:13:16.336Z,99.60
2018-10-07T23:15:44.829Z,99.70
2018-10-07T23:18:13.287Z,99.70
2018-10-07T23:20:41.689Z,99.70
2018-10-07T23:23:10.096Z,99.60
2018-10-07T23:25:38.633Z,99.70
2018-10-07T23:28:07.096Z,99.90
2018-10-07T23:30:35.560Z,99.90
2018-10-07T23:33:04.090Z,99.90
2018-10-07T23:35:32.497Z,99.90
2018-10-07T23:38:00.906Z,99.90
2018-10-07T23:40:29.425Z,99.90
2018-10-07T23:42:57.877Z,99.90
2018-10-07T23:45:26.313Z,99.90
2018-10-07T23:47:54.736Z,99.90
2018-10-07T23:50:23.180Z,99.90
2018-10-07T23:52:51.648Z,99.90
2018-10-07T23:55:20.116Z,99.90
2018-10-07T23:57:48.571Z,99.90
